sensor_id;sensor_type;location;lat;lon;timestamp;temperature;humidity
12957;DHT22;6543;48.836;10.092;2023-07-29T00:00:08;16.00;99.90
12957;DHT22;6543;48.836;10.092;2023-07-29T00:02:36;16.00;99.90
12957;DHT22;6543;48.836;10.092;2023-07-29T00:05:03;16.10;99.90
12957;DHT22;6543;48.836;10.092;2023-07-29T00:07:30;16.10;99.90
12957;DHT22;6543;48.836;10.092;2023-07-29T00:09:57;16.20;99.90
12957;DHT22;6543;48.836;10.092;2023-07-29T00:12:25;16.20;99.90
12957;DHT22;6543;48.836;10.092;2023-07-29T00:14:52;16.20;99.90
12957;DHT22;6543;48.836;10.092;2023-07-29T00:17:19;16.20;99.90
12957;DHT22;6543;48.836;10.092;2023-07-29T00:19:46;16.30;99.90
12957;DHT22;6543;48.836;10.092;2023-07-29T00:22:13;16.30;99.90
12957;DHT22;6543;48.836;10.092;2023-07-29T00:24:40;16.30;99.90
12957;DHT22;6543;48.836;10.092;2023-07-29T00:27:07;16.40;99.90
12957;DHT22;6543;48.836;10.092;2023-07-29T00:29:35;16.40;99.90
12957;DHT22;6543;48.836;10.092;2023-07-29T00:32:02;16.40;99.90
12957;DHT22;6543;48.836;10.092;2023-07-29T00:34:29;16.30;99.90
12957;DHT22;6543;48.836;10.092;2023-07-29T00:36:56;16.20;99.90
12957;DHT22;6543;48.836;10.092;2023-07-29T00:39:23;16.20;99.90
12957;DHT22;6543;48.836;10.092;2023-07-29T00:41:50;16.20;99.90
12957;DHT22;6543;48.836;10.092;2023-07-29T00:44:17;16.20;99.90
12957;DHT22;6543;48.836;10.092;2023-07-29T00:46:46;16.20;99.90
12957;DHT22;6543;48.836;10.092;2023-07-29T00:49:13;16.20;99.90
12957;DHT22;6543;48.836;10.092;2023-07-29T00:51:40;16.10;99.90
12957;DHT22;6543;48.836;10.092;2023-07-29T00:54:07;16.10;99.90
12957;DHT22;6543;48.836;10.092;2023-07-29T00:56:34;16.00;99.90
12957;DHT22;6543;48.836;10.092;2023-07-29T00:59:01;16.00;99.90
12957;DHT22;6543;48.836;10.092;2023-07-29T01:01:28;16.00;99.90
12957;DHT22;6543;48.836;10.092;2023-07-29T01:03:56;16.00;99.90
12957;DHT22;6543;48.836;10.092;2023-07-29T01:06:29;16.10;99.90
12957;DHT22;6543;48.836;10.092;2023-07-29T01:09:02;16.00;99.90
12957;DHT22;6543;48.836;10.092;2023-07-29T01:11:38;16.00;99.90
12957;DHT22;6543;48.836;10.092;2023-07-29T01:14:13;16.00;99.90
12957;DHT22;6543;48.836;10.092;2023-07-29T01:16:48;15.90;99.90
12957;DHT22;6543;48.836;10.092;2023-07-29T01:19:34;16.00;99.90
12957;DHT22;6543;48.836;10.092;2023-07-29T01:22:08;16.10;99.90
12957;DHT22;6543;48.836;10.092;2023-07-29T01:24:38;16.20;99.90
12957;DHT22;6543;48.836;10.092;2023-07-29T01:27:05;16.20;99.90
12957;DHT22;6543;48.836;10.092;2023-07-29T01:29:32;16.20;99.90
12957;DHT22;6543;48.836;10.092;2023-07-29T01:32:04;16.20;99.90
12957;DHT22;6543;48.836;10.092;2023-07-29T01:34:41;16.20;99.90
12957;DHT22;6543;48.836;10.092;2023-07-29T01:37:15;16.20;99.90
12957;DHT22;6543;48.836;10.092;2023-07-29T01:39:45;16.20;99.90
12957;DHT22;6543;48.836;10.092;2023-07-29T01:42:12;16.20;99.90
12957;DHT22;6543;48.836;10.092;2023-07-29T01:44:39;16.20;99.90
12957;DHT22;6543;48.836;10.092;2023-07-29T01:47:08;16.30;99.90
12957;DHT22;6543;48.836;10.092;2023-07-29T01:49:34;16.30;99.90
12957;DHT22;6543;48.836;10.092;2023-07-29T01:52:01;16.20;99.90
12957;DHT22;6543;48.836;10.092;2023-07-29T01:54:28;16.20;99.90
12957;DHT22;6543;48.836;10.092;2023-07-29T01:56:56;16.20;99.90
12957;DHT22;6543;48.836;10.092;2023-07-29T01:59:23;16.20;99.90
12957;DHT22;6543;48.836;10.092;2023-07-29T02:01:50;16.20;99.90
12957;DHT22;6543;48.836;10.092;2023-07-29T02:04:17;16.20;99.90
12957;DHT22;6543;48.836;10.092;2023-07-29T02:06:43;16.20;99.90
12957;DHT22;6543;48.836;10.092;2023-07-29T02:09:10;16.20;99.90
12957;DHT22;6543;48.836;10.092;2023-07-29T02:11:37;16.20;99.90
12957;DHT22;6543;48.836;10.092;2023-07-29T02:14:05;16.20;99.90
12957;DHT22;6543;48.836;10.092;2023-07-29T02:16:32;16.20;99.90
12957;DHT22;6543;48.836;10.092;2023-07-29T02:19:00;16.20;99.90
12957;DHT22;6543;48.836;10.092;2023-07-29T02:21:26;16.20;99.90
12957;DHT22;6543;48.836;10.092;2023-07-29T02:23:53;16.20;99.90
12957;DHT22;6543;48.836;10.092;2023-07-29T02:26:20;16.30;99.90
12957;DHT22;6543;48.836;10.092;2023-07-29T02:28:47;16.30;99.90
12957;DHT22;6543;48.836;10.092;2023-07-29T02:31:17;16.30;99.90
12957;DHT22;6543;48.836;10.092;2023-07-29T02:33:44;16.30;99.90
12957;DHT22;6543;48.836;10.092;2023-07-29T02:36:12;16.40;99.90
12957;DHT22;6543;48.836;10.092;2023-07-29T02:38:39;16.40;99.90
12957;DHT22;6543;48.836;10.092;2023-07-29T02:41:07;16.50;99.90
12957;DHT22;6543;48.836;10.092;2023-07-29T02:43:35;16.50;99.90
12957;DHT22;6543;48.836;10.092;2023-07-29T02:46:02;16.60;99.90
12957;DHT22;6543;48.836;10.092;2023-07-29T02:48:30;16.70;99.90
12957;DHT22;6543;48.836;10.092;2023-07-29T02:50:57;16.70;99.90
12957;DHT22;6543;48.836;10.092;2023-07-29T02:53:24;16.70;99.90
12957;DHT22;6543;48.836;10.092;2023-07-29T02:55:51;16.80;99.90
12957;DHT22;6543;48.836;10.092;2023-07-29T02:58:18;16.80;99.90
12957;DHT22;6543;48.836;10.092;2023-07-29T03:00:44;16.80;99.90
12957;DHT22;6543;48.836;10.092;2023-07-29T03:03:13;16.80;99.90
12957;DHT22;6543;48.836;10.092;2023-07-29T03:05:41;16.70;99.90
12957;DHT22;6543;48.836;10.092;2023-07-29T03:08:08;16.70;99.90
12957;DHT22;6543;48.836;10.092;2023-07-29T03:10:35;16.70;99.90
12957;DHT22;6543;48.836;10.092;2023-07-29T03:13:02;16.70;99.90
12957;DHT22;6543;48.836;10.092;2023-07-29T03:15:29;16.60;99.90
12957;DHT22;6543;48.836;10.092;2023-07-29T03:17:55;16.60;99.90
12957;DHT22;6543;48.836;10.092;2023-07-29T03:20:22;16.60;99.90
12957;DHT22;6543;48.836;10.092;2023-07-29T03:22:50;16.60;99.90
12957;DHT22;6543;48.836;10.092;2023-07-29T03:25:17;16.50;99.90
12957;DHT22;6543;48.836;10.092;2023-07-29T03:27:44;16.60;99.90
12957;DHT22;6543;48.836;10.092;2023-07-29T03:30:11;16.50;99.90
12957;DHT22;6543;48.836;10.092;2023-07-29T03:32:42;16.50;99.90
12957;DHT22;6543;48.836;10.092;2023-07-29T03:35:09;16.50;99.90
12957;DHT22;6543;48.836;10.092;2023-07-29T03:37:36;16.40;99.90
12957;DHT22;6543;48.836;10.092;2023-07-29T03:40:06;16.40;99.90
12957;DHT22;6543;48.836;10.092;2023-07-29T03:42:33;16.40;99.90
12957;DHT22;6543;48.836;10.092;2023-07-29T03:45:00;16.30;99.90
12957;DHT22;6543;48.836;10.092;2023-07-29T03:47:27;16.30;99.90
12957;DHT22;6543;48.836;10.092;2023-07-29T03:49:54;16.30;99.90
12957;DHT22;6543;48.836;10.092;2023-07-29T03:52:20;16.40;99.90
12957;DHT22;6543;48.836;10.092;2023-07-29T03:54:47;16.40;99.90
12957;DHT22;6543;48.836;10.092;2023-07-29T03:57:15;16.50;99.90
12957;DHT22;6543;48.836;10.092;2023-07-29T03:59:42;16.50;99.90
12957;DHT22;6543;48.836;10.092;2023-07-29T04:02:09;16.60;99.90
12957;DHT22;6543;48.836;10.092;2023-07-29T04:04:36;16.60;99.90
12957;DHT22;6543;48.836;10.092;2023-07-29T04:07:03;16.60;99.90
12957;DHT22;6543;48.836;10.092;2023-07-29T04:09:30;16.70;99.90
12957;DHT22;6543;48.836;10.092;2023-07-29T04:11:57;16.70;99.90
12957;DHT22;6543;48.836;10.092;2023-07-29T04:14:25;16.80;99.90
12957;DHT22;6543;48.836;10.092;2023-07-29T04:16:52;16.90;99.90
12957;DHT22;6543;48.836;10.092;2023-07-29T04:19:19;16.90;99.90
12957;DHT22;6543;48.836;10.092;2023-07-29T04:21:45;17.00;99.90
12957;DHT22;6543;48.836;10.092;2023-07-29T04:24:12;17.00;99.90
12957;DHT22;6543;48.836;10.092;2023-07-29T04:26:39;17.10;99.90
12957;DHT22;6543;48.836;10.092;2023-07-29T04:29:06;17.10;99.90
12957;DHT22;6543;48.836;10.092;2023-07-29T04:31:34;17.20;99.90
12957;DHT22;6543;48.836;10.092;2023-07-29T04:34:01;17.30;99.90
12957;DHT22;6543;48.836;10.092;2023-07-29T04:36:28;17.30;99.90
12957;DHT22;6543;48.836;10.092;2023-07-29T04:38:55;17.40;99.90
12957;DHT22;6543;48.836;10.092;2023-07-29T04:41:21;17.50;99.90
12957;DHT22;6543;48.836;10.092;2023-07-29T04:43:48;17.40;99.90
12957;DHT22;6543;48.836;10.092;2023-07-29T04:46:15;17.40;99.90
12957;DHT22;6543;48.836;10.092;2023-07-29T04:48:43;17.40;99.90
12957;DHT22;6543;48.836;10.092;2023-07-29T04:51:10;17.40;99.90
12957;DHT22;6543;48.836;10.092;2023-07-29T04:53:37;17.40;99.90
12957;DHT22;6543;48.836;10.092;2023-07-29T04:56:04;17.40;99.90
12957;DHT22;6543;48.836;10.092;2023-07-29T04:58:31;17.50;99.90
12957;DHT22;6543;48.836;10.092;2023-07-29T05:01:00;17.50;99.90
12957;DHT22;6543;48.836;10.092;2023-07-29T05:03:28;17.50;99.90
12957;DHT22;6543;48.836;10.092;2023-07-29T05:05:57;17.50;99.90
12957;DHT22;6543;48.836;10.092;2023-07-29T05:08:25;17.60;99.90
12957;DHT22;6543;48.836;10.092;2023-07-29T05:10:52;17.60;99.90
12957;DHT22;6543;48.836;10.092;2023-07-29T05:13:20;17.70;99.90
12957;DHT22;6543;48.836;10.092;2023-07-29T05:15:47;17.90;99.90
12957;DHT22;6543;48.836;10.092;2023-07-29T05:18:14;17.90;99.90
12957;DHT22;6543;48.836;10.092;2023-07-29T05:20:41;18.00;99.90
12957;DHT22;6543;48.836;10.092;2023-07-29T05:23:09;18.00;99.90
12957;DHT22;6543;48.836;10.092;2023-07-29T05:25:36;18.10;99.90
12957;DHT22;6543;48.836;10.092;2023-07-29T05:28:03;18.20;99.90
12957;DHT22;6543;48.836;10.092;2023-07-29T05:30:31;18.20;99.90
12957;DHT22;6543;48.836;10.092;2023-07-29T05:32:59;18.30;99.90
12957;DHT22;6543;48.836;10.092;2023-07-29T05:35:26;18.40;99.90
12957;DHT22;6543;48.836;10.092;2023-07-29T05:37:53;18.40;99.90
12957;DHT22;6543;48.836;10.092;2023-07-29T05:40:21;18.50;99.90
12957;DHT22;6543;48.836;10.092;2023-07-29T05:42:48;18.50;99.90
12957;DHT22;6543;48.836;10.092;2023-07-29T05:45:15;18.50;99.90
12957;DHT22;6543;48.836;10.092;2023-07-29T05:47:41;18.60;99.90
12957;DHT22;6543;48.836;10.092;2023-07-29T05:50:09;18.60;99.90
12957;DHT22;6543;48.836;10.092;2023-07-29T05:52:37;18.50;99.90
12957;DHT22;6543;48.836;10.092;2023-07-29T05:55:04;18.30;99.90
12957;DHT22;6543;48.836;10.092;2023-07-29T05:57:32;18.10;99.90
12957;DHT22;6543;48.836;10.092;2023-07-29T05:59:59;17.90;99.90
12957;DHT22;6543;48.836;10.092;2023-07-29T06:02:26;17.80;99.90
12957;DHT22;6543;48.836;10.092;2023-07-29T06:04:53;17.70;99.90
12957;DHT22;6543;48.836;10.092;2023-07-29T06:07:20;17.60;99.90
12957;DHT22;6543;48.836;10.092;2023-07-29T06:09:47;17.60;99.90
12957;DHT22;6543;48.836;10.092;2023-07-29T06:12:13;17.60;99.90
12957;DHT22;6543;48.836;10.092;2023-07-29T06:14:41;17.70;99.90
12957;DHT22;6543;48.836;10.092;2023-07-29T06:17:08;17.70;99.90
12957;DHT22;6543;48.836;10.092;2023-07-29T06:19:36;17.80;99.90
12957;DHT22;6543;48.836;10.092;2023-07-29T06:22:04;17.90;99.90
12957;DHT22;6543;48.836;10.092;2023-07-29T06:24:32;18.00;99.90
12957;DHT22;6543;48.836;10.092;2023-07-29T06:26:59;18.00;99.90
12957;DHT22;6543;48.836;10.092;2023-07-29T06:29:25;17.90;99.90
12957;DHT22;6543;48.836;10.092;2023-07-29T06:31:53;17.90;99.90
12957;DHT22;6543;48.836;10.092;2023-07-29T06:34:20;18.00;99.90
12957;DHT22;6543;48.836;10.092;2023-07-29T06:36:48;17.90;99.90
12957;DHT22;6543;48.836;10.092;2023-07-29T06:39:14;17.90;99.90
12957;DHT22;6543;48.836;10.092;2023-07-29T06:41:41;18.00;99.90
12957;DHT22;6543;48.836;10.092;2023-07-29T06:44:08;18.00;99.90
12957;DHT22;6543;48.836;10.092;2023-07-29T06:46:35;18.10;99.90
12957;DHT22;6543;48.836;10.092;2023-07-29T06:49:03;18.10;99.90
12957;DHT22;6543;48.836;10.092;2023-07-29T06:51:30;18.30;99.90
12957;DHT22;6543;48.836;10.092;2023-07-29T06:54:00;18.30;99.90
12957;DHT22;6543;48.836;10.092;2023-07-29T06:56:27;18.50;99.90
12957;DHT22;6543;48.836;10.092;2023-07-29T06:58:53;18.50;99.90
12957;DHT22;6543;48.836;10.092;2023-07-29T07:01:20;18.60;99.90
12957;DHT22;6543;48.836;10.092;2023-07-29T07:03:47;18.70;99.90
12957;DHT22;6543;48.836;10.092;2023-07-29T07:06:15;18.80;99.90
12957;DHT22;6543;48.836;10.092;2023-07-29T07:08:42;19.00;99.90
12957;DHT22;6543;48.836;10.092;2023-07-29T07:11:09;19.10;99.90
12957;DHT22;6543;48.836;10.092;2023-07-29T07:13:36;19.20;99.90
12957;DHT22;6543;48.836;10.092;2023-07-29T07:16:03;19.40;99.90
12957;DHT22;6543;48.836;10.092;2023-07-29T07:18:30;19.40;99.90
12957;DHT22;6543;48.836;10.092;2023-07-29T07:20:57;19.70;99.90
12957;DHT22;6543;48.836;10.092;2023-07-29T07:23:25;19.80;99.90
12957;DHT22;6543;48.836;10.092;2023-07-29T07:25:52;20.00;99.90
12957;DHT22;6543;48.836;10.092;2023-07-29T07:28:19;19.90;99.90
12957;DHT22;6543;48.836;10.092;2023-07-29T07:30:45;20.00;99.90
12957;DHT22;6543;48.836;10.092;2023-07-29T07:33:12;19.80;99.90
12957;DHT22;6543;48.836;10.092;2023-07-29T07:35:39;19.80;99.90
12957;DHT22;6543;48.836;10.092;2023-07-29T07:38:07;19.80;99.90
12957;DHT22;6543;48.836;10.092;2023-07-29T07:40:36;19.90;99.90
12957;DHT22;6543;48.836;10.092;2023-07-29T07:43:03;19.90;99.90
12957;DHT22;6543;48.836;10.092;2023-07-29T07:45:32;19.90;99.90
12957;DHT22;6543;48.836;10.092;2023-07-29T07:47:58;19.90;99.90
12957;DHT22;6543;48.836;10.092;2023-07-29T07:50:25;19.70;99.90
12957;DHT22;6543;48.836;10.092;2023-07-29T07:52:55;19.60;99.90
12957;DHT22;6543;48.836;10.092;2023-07-29T07:55:22;19.60;99.90
12957;DHT22;6543;48.836;10.092;2023-07-29T07:57:50;19.40;99.90
12957;DHT22;6543;48.836;10.092;2023-07-29T08:00:16;19.30;99.90
12957;DHT22;6543;48.836;10.092;2023-07-29T08:02:44;19.10;99.90
12957;DHT22;6543;48.836;10.092;2023-07-29T08:05:11;19.00;99.90
12957;DHT22;6543;48.836;10.092;2023-07-29T08:07:38;18.70;99.90
12957;DHT22;6543;48.836;10.092;2023-07-29T08:10:06;18.60;99.90
12957;DHT22;6543;48.836;10.092;2023-07-29T08:12:33;18.50;99.90
12957;DHT22;6543;48.836;10.092;2023-07-29T08:15:01;18.40;99.90
12957;DHT22;6543;48.836;10.092;2023-07-29T08:17:28;18.30;99.90
12957;DHT22;6543;48.836;10.092;2023-07-29T08:19:55;18.20;99.90
12957;DHT22;6543;48.836;10.092;2023-07-29T08:22:22;18.10;99.90
12957;DHT22;6543;48.836;10.092;2023-07-29T08:24:49;18.10;99.90
12957;DHT22;6543;48.836;10.092;2023-07-29T08:27:16;18.00;99.90
12957;DHT22;6543;48.836;10.092;2023-07-29T08:29:42;18.10;99.90
12957;DHT22;6543;48.836;10.092;2023-07-29T08:32:11;18.20;99.90
12957;DHT22;6543;48.836;10.092;2023-07-29T08:34:37;18.40;99.90
12957;DHT22;6543;48.836;10.092;2023-07-29T08:37:05;18.50;99.90
12957;DHT22;6543;48.836;10.092;2023-07-29T08:39:32;18.70;99.90
12957;DHT22;6543;48.836;10.092;2023-07-29T08:42:02;18.90;99.90
12957;DHT22;6543;48.836;10.092;2023-07-29T08:44:35;19.00;99.90
12957;DHT22;6543;48.836;10.092;2023-07-29T08:47:03;19.10;99.90
12957;DHT22;6543;48.836;10.092;2023-07-29T08:49:33;19.30;99.90
12957;DHT22;6543;48.836;10.092;2023-07-29T08:52:01;19.40;99.90
12957;DHT22;6543;48.836;10.092;2023-07-29T08:54:28;19.60;99.90
12957;DHT22;6543;48.836;10.092;2023-07-29T08:56:55;19.90;99.90
12957;DHT22;6543;48.836;10.092;2023-07-29T08:59:22;20.00;99.90
12957;DHT22;6543;48.836;10.092;2023-07-29T09:01:50;19.80;99.90
12957;DHT22;6543;48.836;10.092;2023-07-29T09:04:21;20.00;99.90
12957;DHT22;6543;48.836;10.092;2023-07-29T09:06:51;20.00;99.90
12957;DHT22;6543;48.836;10.092;2023-07-29T09:09:18;19.90;99.90
12957;DHT22;6543;48.836;10.092;2023-07-29T09:11:45;19.70;99.90
12957;DHT22;6543;48.836;10.092;2023-07-29T09:14:12;19.60;99.90
12957;DHT22;6543;48.836;10.092;2023-07-29T09:16:40;19.70;99.90
12957;DHT22;6543;48.836;10.092;2023-07-29T09:19:06;20.10;99.90
12957;DHT22;6543;48.836;10.092;2023-07-29T09:21:34;20.10;99.90
12957;DHT22;6543;48.836;10.092;2023-07-29T09:24:04;20.00;99.90
12957;DHT22;6543;48.836;10.092;2023-07-29T09:26:33;20.10;99.90
12957;DHT22;6543;48.836;10.092;2023-07-29T09:29:00;20.10;99.90
12957;DHT22;6543;48.836;10.092;2023-07-29T09:31:28;20.30;99.90
12957;DHT22;6543;48.836;10.092;2023-07-29T09:33:56;20.40;99.90
12957;DHT22;6543;48.836;10.092;2023-07-29T09:36:23;20.60;99.90
12957;DHT22;6543;48.836;10.092;2023-07-29T09:38:52;20.70;99.90
12957;DHT22;6543;48.836;10.092;2023-07-29T09:41:22;21.10;99.90
12957;DHT22;6543;48.836;10.092;2023-07-29T09:43:55;21.10;99.90
12957;DHT22;6543;48.836;10.092;2023-07-29T09:46:23;21.10;99.90
12957;DHT22;6543;48.836;10.092;2023-07-29T09:48:53;21.10;99.90
12957;DHT22;6543;48.836;10.092;2023-07-29T09:51:21;21.10;99.90
12957;DHT22;6543;48.836;10.092;2023-07-29T09:53:49;21.20;99.90
12957;DHT22;6543;48.836;10.092;2023-07-29T09:56:16;21.30;99.90
12957;DHT22;6543;48.836;10.092;2023-07-29T09:58:45;21.40;99.90
12957;DHT22;6543;48.836;10.092;2023-07-29T10:01:12;21.30;99.90
12957;DHT22;6543;48.836;10.092;2023-07-29T10:03:40;21.50;99.90
12957;DHT22;6543;48.836;10.092;2023-07-29T10:06:07;21.60;99.90
12957;DHT22;6543;48.836;10.092;2023-07-29T10:08:34;21.80;99.90
12957;DHT22;6543;48.836;10.092;2023-07-29T10:11:05;22.00;99.90
12957;DHT22;6543;48.836;10.092;2023-07-29T10:13:34;22.40;99.90
12957;DHT22;6543;48.836;10.092;2023-07-29T10:16:03;22.40;99.90
12957;DHT22;6543;48.836;10.092;2023-07-29T10:18:31;22.60;99.90
12957;DHT22;6543;48.836;10.092;2023-07-29T10:20:59;22.60;99.90
12957;DHT22;6543;48.836;10.092;2023-07-29T10:23:27;22.60;99.90
12957;DHT22;6543;48.836;10.092;2023-07-29T10:26:02;22.70;99.90
12957;DHT22;6543;48.836;10.092;2023-07-29T10:28:30;22.90;99.90
12957;DHT22;6543;48.836;10.092;2023-07-29T10:30:58;23.10;99.90
12957;DHT22;6543;48.836;10.092;2023-07-29T10:33:26;23.10;99.90
12957;DHT22;6543;48.836;10.092;2023-07-29T10:35:53;23.60;99.90
12957;DHT22;6543;48.836;10.092;2023-07-29T10:38:22;23.30;99.90
12957;DHT22;6543;48.836;10.092;2023-07-29T10:40:52;23.50;99.90
12957;DHT22;6543;48.836;10.092;2023-07-29T10:43:25;23.90;99.90
12957;DHT22;6543;48.836;10.092;2023-07-29T10:45:53;23.70;99.90
12957;DHT22;6543;48.836;10.092;2023-07-29T10:48:40;23.70;99.90
12957;DHT22;6543;48.836;10.092;2023-07-29T10:51:22;23.50;99.90
12957;DHT22;6543;48.836;10.092;2023-07-29T10:53:52;23.60;99.90
12957;DHT22;6543;48.836;10.092;2023-07-29T10:56:28;23.40;99.90
12957;DHT22;6543;48.836;10.092;2023-07-29T10:58:57;23.60;99.90
12957;DHT22;6543;48.836;10.092;2023-07-29T11:01:28;23.70;99.90
12957;DHT22;6543;48.836;10.092;2023-07-29T11:04:22;24.10;99.90
12957;DHT22;6543;48.836;10.092;2023-07-29T11:07:20;23.90;99.90
12957;DHT22;6543;48.836;10.092;2023-07-29T11:10:00;24.00;99.90
12957;DHT22;6543;48.836;10.092;2023-07-29T11:12:41;24.80;99.90
12957;DHT22;6543;48.836;10.092;2023-07-29T11:15:13;24.00;99.90
12957;DHT22;6543;48.836;10.092;2023-07-29T11:17:42;23.50;99.90
12957;DHT22;6543;48.836;10.092;2023-07-29T11:20:11;22.40;99.90
12957;DHT22;6543;48.836;10.092;2023-07-29T11:22:39;19.50;99.90
12957;DHT22;6543;48.836;10.092;2023-07-29T11:25:07;18.60;99.90
12957;DHT22;6543;48.836;10.092;2023-07-29T11:27:34;17.90;99.90
12957;DHT22;6543;48.836;10.092;2023-07-29T11:30:03;17.80;99.90
12957;DHT22;6543;48.836;10.092;2023-07-29T11:32:32;17.70;99.90
12957;DHT22;6543;48.836;10.092;2023-07-29T11:35:02;17.60;99.90
12957;DHT22;6543;48.836;10.092;2023-07-29T11:37:32;17.40;99.90
12957;DHT22;6543;48.836;10.092;2023-07-29T11:39:59;17.60;99.90
12957;DHT22;6543;48.836;10.092;2023-07-29T11:42:27;17.90;99.90
12957;DHT22;6543;48.836;10.092;2023-07-29T11:44:56;18.00;99.90
12957;DHT22;6543;48.836;10.092;2023-07-29T11:47:24;18.20;99.90
12957;DHT22;6543;48.836;10.092;2023-07-29T11:49:51;18.40;99.90
12957;DHT22;6543;48.836;10.092;2023-07-29T11:52:18;18.70;99.90
12957;DHT22;6543;48.836;10.092;2023-07-29T11:54:48;19.00;99.90
12957;DHT22;6543;48.836;10.092;2023-07-29T11:57:16;19.10;99.90
12957;DHT22;6543;48.836;10.092;2023-07-29T11:59:44;19.50;99.90
12957;DHT22;6543;48.836;10.092;2023-07-29T12:02:12;19.80;99.90
12957;DHT22;6543;48.836;10.092;2023-07-29T12:04:40;20.20;99.90
12957;DHT22;6543;48.836;10.092;2023-07-29T12:07:08;20.30;99.90
12957;DHT22;6543;48.836;10.092;2023-07-29T12:09:35;20.30;99.90
12957;DHT22;6543;48.836;10.092;2023-07-29T12:12:05;20.40;99.90
12957;DHT22;6543;48.836;10.092;2023-07-29T12:14:32;20.60;99.90
12957;DHT22;6543;48.836;10.092;2023-07-29T12:17:00;20.50;99.90
12957;DHT22;6543;48.836;10.092;2023-07-29T12:19:32;20.80;99.90
12957;DHT22;6543;48.836;10.092;2023-07-29T12:22:00;20.90;99.90
12957;DHT22;6543;48.836;10.092;2023-07-29T12:24:28;21.20;99.90
12957;DHT22;6543;48.836;10.092;2023-07-29T12:26:56;21.30;99.90
12957;DHT22;6543;48.836;10.092;2023-07-29T12:29:24;21.50;99.90
12957;DHT22;6543;48.836;10.092;2023-07-29T12:31:57;21.70;99.90
12957;DHT22;6543;48.836;10.092;2023-07-29T12:34:25;21.90;99.90
12957;DHT22;6543;48.836;10.092;2023-07-29T12:36:53;22.30;99.90
12957;DHT22;6543;48.836;10.092;2023-07-29T12:39:22;22.40;99.90
12957;DHT22;6543;48.836;10.092;2023-07-29T12:41:50;22.30;99.90
12957;DHT22;6543;48.836;10.092;2023-07-29T12:44:17;22.00;99.90
12957;DHT22;6543;48.836;10.092;2023-07-29T12:46:46;21.90;99.90
12957;DHT22;6543;48.836;10.092;2023-07-29T12:49:13;21.90;99.90
12957;DHT22;6543;48.836;10.092;2023-07-29T12:51:39;22.40;99.90
12957;DHT22;6543;48.836;10.092;2023-07-29T12:54:06;23.00;99.90
12957;DHT22;6543;48.836;10.092;2023-07-29T12:56:33;22.50;99.90
12957;DHT22;6543;48.836;10.092;2023-07-29T12:59:01;22.50;99.90
12957;DHT22;6543;48.836;10.092;2023-07-29T13:01:28;22.70;99.90
12957;DHT22;6543;48.836;10.092;2023-07-29T13:03:56;22.90;99.90
12957;DHT22;6543;48.836;10.092;2023-07-29T13:06:23;23.10;99.90
12957;DHT22;6543;48.836;10.092;2023-07-29T13:08:50;22.80;99.90
12957;DHT22;6543;48.836;10.092;2023-07-29T13:11:17;23.10;99.90
12957;DHT22;6543;48.836;10.092;2023-07-29T13:13:44;23.20;99.90
12957;DHT22;6543;48.836;10.092;2023-07-29T13:16:12;23.50;99.90
12957;DHT22;6543;48.836;10.092;2023-07-29T13:18:39;23.50;99.90
12957;DHT22;6543;48.836;10.092;2023-07-29T13:21:07;23.90;99.90
12957;DHT22;6543;48.836;10.092;2023-07-29T13:23:34;23.90;99.90
12957;DHT22;6543;48.836;10.092;2023-07-29T13:26:01;23.90;99.90
12957;DHT22;6543;48.836;10.092;2023-07-29T13:28:28;23.80;99.90
12957;DHT22;6543;48.836;10.092;2023-07-29T13:30:55;23.70;99.90
12957;DHT22;6543;48.836;10.092;2023-07-29T13:33:22;23.30;99.90
12957;DHT22;6543;48.836;10.092;2023-07-29T13:35:49;23.40;99.90
12957;DHT22;6543;48.836;10.092;2023-07-29T13:38:17;23.50;99.90
12957;DHT22;6543;48.836;10.092;2023-07-29T13:40:45;23.50;99.90
12957;DHT22;6543;48.836;10.092;2023-07-29T13:43:12;23.80;99.90
12957;DHT22;6543;48.836;10.092;2023-07-29T13:45:39;23.80;99.90
12957;DHT22;6543;48.836;10.092;2023-07-29T13:48:05;23.80;99.90
12957;DHT22;6543;48.836;10.092;2023-07-29T13:50:32;23.90;99.90
12957;DHT22;6543;48.836;10.092;2023-07-29T13:52:59;24.30;99.90
12957;DHT22;6543;48.836;10.092;2023-07-29T13:55:27;24.60;99.90
12957;DHT22;6543;48.836;10.092;2023-07-29T13:57:54;24.70;99.90
12957;DHT22;6543;48.836;10.092;2023-07-29T14:00:21;24.70;99.90
12957;DHT22;6543;48.836;10.092;2023-07-29T14:02:48;24.40;99.90
12957;DHT22;6543;48.836;10.092;2023-07-29T14:05:15;24.60;99.90
12957;DHT22;6543;48.836;10.092;2023-07-29T14:07:42;24.80;99.90
12957;DHT22;6543;48.836;10.092;2023-07-29T14:10:09;25.20;99.90
12957;DHT22;6543;48.836;10.092;2023-07-29T14:12:37;24.80;99.90
12957;DHT22;6543;48.836;10.092;2023-07-29T14:15:05;25.00;99.90
12957;DHT22;6543;48.836;10.092;2023-07-29T14:17:32;24.80;99.90
12957;DHT22;6543;48.836;10.092;2023-07-29T14:19:58;24.50;99.90
12957;DHT22;6543;48.836;10.092;2023-07-29T14:22:25;24.30;99.90
12957;DHT22;6543;48.836;10.092;2023-07-29T14:24:52;24.30;99.90
12957;DHT22;6543;48.836;10.092;2023-07-29T14:27:19;24.60;99.90
12957;DHT22;6543;48.836;10.092;2023-07-29T14:29:47;25.00;99.90
12957;DHT22;6543;48.836;10.092;2023-07-29T14:32:14;24.90;99.90
12957;DHT22;6543;48.836;10.092;2023-07-29T14:34:41;25.20;99.90
12957;DHT22;6543;48.836;10.092;2023-07-29T14:37:08;25.50;99.90
12957;DHT22;6543;48.836;10.092;2023-07-29T14:39:34;24.90;99.90
12957;DHT22;6543;48.836;10.092;2023-07-29T14:42:01;24.60;99.90
12957;DHT22;6543;48.836;10.092;2023-07-29T14:44:28;24.80;99.90
12957;DHT22;6543;48.836;10.092;2023-07-29T14:46:56;25.10;99.90
12957;DHT22;6543;48.836;10.092;2023-07-29T14:49:23;25.20;99.90
12957;DHT22;6543;48.836;10.092;2023-07-29T14:51:51;25.00;99.90
12957;DHT22;6543;48.836;10.092;2023-07-29T14:54:18;24.90;99.90
12957;DHT22;6543;48.836;10.092;2023-07-29T14:56:45;24.90;99.90
12957;DHT22;6543;48.836;10.092;2023-07-29T14:59:11;24.90;99.90
12957;DHT22;6543;48.836;10.092;2023-07-29T15:01:38;24.70;99.90
12957;DHT22;6543;48.836;10.092;2023-07-29T15:04:07;25.00;99.90
12957;DHT22;6543;48.836;10.092;2023-07-29T15:06:33;25.50;99.90
12957;DHT22;6543;48.836;10.092;2023-07-29T15:09:00;25.20;99.90
12957;DHT22;6543;48.836;10.092;2023-07-29T15:11:28;24.80;99.90
12957;DHT22;6543;48.836;10.092;2023-07-29T15:13:55;24.90;99.90
12957;DHT22;6543;48.836;10.092;2023-07-29T15:16:23;25.30;99.90
12957;DHT22;6543;48.836;10.092;2023-07-29T15:18:50;25.40;99.90
12957;DHT22;6543;48.836;10.092;2023-07-29T15:21:18;25.60;99.90
12957;DHT22;6543;48.836;10.092;2023-07-29T15:23:45;25.20;99.90
12957;DHT22;6543;48.836;10.092;2023-07-29T15:26:12;25.00;99.90
12957;DHT22;6543;48.836;10.092;2023-07-29T15:28:39;25.00;99.90
12957;DHT22;6543;48.836;10.092;2023-07-29T15:31:06;25.20;99.90
12957;DHT22;6543;48.836;10.092;2023-07-29T15:33:33;25.20;99.90